100LL.CA
Aviation Fuel Pricing for Canadians
Please upgrade your browser - Tested with IE9, FireFox, Chrome, Safari

Fuel Airports Other Help
Prices Economy Info List METAR/TAF Kneeboard Help

Reference Airport: EDSON, AB
N 53 34 44  W 116 27 54
Provinces to show:

CYET EDSON, AB
WEATHER
METARCYET 230300Z AUTO 24004KT 9SM CLR 05/M09 A2992 RMK SLP172
OTHER SITES

FlightAware

FltPlan

Google Maps

SkyVector
FUEL
FBO 100LL
member
100LL
public
JETA MOGAS
Jet Alta (2018-08-05)1.6501.520
  Note: Landing fees apply. Fuel is now Cardlock Accessible with all major Credit Cards.
Dandy Oil (2022-06-07)2.6792.159
Canada Flight Supplement - CYET
(opens in new tab/window)


Please Send Updates!

Desktop Version ]  [ Mobile Version ]  [ Disclaimer ]